Time;durP1;ratioP1;P1;durP2;ratioP2;P2;SDS_P1;SDS_P2;PMS_P1;PMS_P2;Temp;Humidity;BMP_temperature;BMP_pressure;BME280_temperature;BME280_humidity;BME280_pressure;Samples;Min_cycle;Max_cycle;Signal;HPM_P1;HPM_P2
2022/03/19 00:00:59;;;;;;;6.78;2.72;;;18.60;55.70;;;;;;5115542;28;20072;-75
2022/03/19 00:03:26;;;;;;;6.93;2.90;;;18.50;55.70;;;;;;5115280;28;20106;-73
2022/03/19 00:05:51;;;;;;;6.60;2.70;;;18.60;55.70;;;;;;5115607;28;20027;-78
2022/03/19 00:08:17;;;;;;;6.70;3.17;;;18.50;55.70;;;;;;5094879;28;20028;-73
2022/03/19 00:10:44;;;;;;;6.72;2.63;;;18.50;55.70;;;;;;5088848;28;20028;-73
2022/03/19 00:13:10;;;;;;;6.63;2.50;;;18.50;55.80;;;;;;5088576;28;20077;-76
2022/03/19 00:15:37;;;;;;;8.18;2.92;;;18.50;55.80;;;;;;5088558;28;20027;-72
2022/03/19 00:18:03;;;;;;;8.27;2.65;;;18.50;55.80;;;;;;5088180;28;20020;-73
2022/03/19 00:20:29;;;;;;;6.18;2.47;;;18.40;55.80;;;;;;5088405;28;20031;-73
2022/03/19 00:22:55;;;;;;;7.40;2.40;;;18.50;55.80;;;;;;5089286;28;20032;-73
2022/03/19 00:25:21;;;;;;;5.13;2.25;;;18.40;55.90;;;;;;5087682;28;20108;-72
2022/03/19 00:27:47;;;;;;;5.32;2.35;;;18.40;55.90;;;;;;5088124;28;20028;-73
2022/03/19 00:30:13;;;;;;;7.13;2.55;;;18.40;55.90;;;;;;5086249;28;20032;-72
2022/03/19 00:32:38;;;;;;;8.40;2.38;;;18.40;56.00;;;;;;5086155;28;20451;-75
2022/03/19 00:35:05;;;;;;;5.25;2.03;;;18.30;56.00;;;;;;5089386;28;20024;-72
2022/03/19 00:37:32;;;;;;;5.90;2.45;;;18.30;56.00;;;;;;5087661;28;20090;-72
2022/03/19 00:39:58;;;;;;;7.10;2.35;;;18.30;56.00;;;;;;5088617;28;20115;-72
2022/03/19 00:42:24;;;;;;;5.68;2.20;;;18.30;56.00;;;;;;5090532;28;20048;-74
2022/03/19 00:44:50;;;;;;;5.90;2.85;;;18.30;56.10;;;;;;5088224;28;20035;-73
2022/03/19 00:47:16;;;;;;;6.25;2.20;;;18.30;56.20;;;;;;5088412;28;20032;-73
2022/03/19 00:49:41;;;;;;;6.82;2.25;;;18.20;56.80;;;;;;5088465;28;20102;-73
2022/03/19 00:52:07;;;;;;;5.57;2.28;;;18.20;56.30;;;;;;5087022;28;20081;-73
2022/03/19 00:54:33;;;;;;;8.40;1.98;;;18.20;56.30;;;;;;5087510;28;20411;-72
2022/03/19 00:56:58;;;;;;;5.60;2.25;;;18.20;56.50;;;;;;5087644;28;20035;-72
2022/03/19 00:59:24;;;;;;;7.65;2.15;;;18.20;56.50;;;;;;5089840;28;20057;-74
2022/03/19 01:01:50;;;;;;;5.05;2.17;;;18.20;56.60;;;;;;5087888;28;20024;-76
2022/03/19 01:04:15;;;;;;;4.63;1.75;;;18.10;56.50;;;;;;5089335;28;20024;-73
2022/03/19 01:06:41;;;;;;;5.57;2.05;;;18.20;56.60;;;;;;5088490;28;20407;-73
2022/03/19 01:09:07;;;;;;;5.07;1.85;;;18.10;57.10;;;;;;5097540;28;20506;-73
2022/03/19 01:11:32;;;;;;;3.72;1.60;;;18.10;58.20;;;;;;5113831;28;20028;-76
2022/03/19 01:13:58;;;;;;;4.40;1.55;;;18.10;59.20;;;;;;5102849;28;20031;-72
2022/03/19 01:16:27;;;;;;;5.32;2.03;;;18.10;59.40;;;;;;5089690;28;20036;-74
2022/03/19 01:18:53;;;;;;;4.93;1.40;;;18.10;59.40;;;;;;5087224;28;20036;-76
2022/03/19 01:21:19;;;;;;;5.38;1.80;;;18.10;59.70;;;;;;5086389;28;20021;-74
2022/03/19 01:23:45;;;;;;;4.25;1.70;;;18.10;59.80;;;;;;5087368;28;20377;-72
2022/03/19 01:26:11;;;;;;;4.05;1.75;;;18.10;59.80;;;;;;5087135;28;20043;-73
2022/03/19 01:28:36;;;;;;;5.22;1.88;;;18.10;60.00;;;;;;5086388;28;20036;-75
2022/03/19 01:31:02;;;;;;;3.63;1.50;;;18.00;60.30;;;;;;5085548;28;20449;-72
2022/03/19 01:33:28;;;;;;;7.30;1.95;;;18.10;59.30;;;;;;5085522;28;20061;-72
2022/03/19 01:35:54;;;;;;;5.38;1.98;;;18.10;59.00;;;;;;5086841;28;20031;-73
2022/03/19 01:38:20;;;;;;;5.30;1.63;;;18.10;58.80;;;;;;5087795;28;20075;-74
2022/03/19 01:40:45;;;;;;;4.68;1.75;;;18.10;58.70;;;;;;5089099;28;20049;-72
2022/03/19 01:43:11;;;;;;;4.60;1.88;;;18.10;58.50;;;;;;5085905;28;20544;-73
2022/03/19 01:45:37;;;;;;;3.85;1.90;;;18.10;58.50;;;;;;5086318;28;20024;-76
2022/03/19 01:48:03;;;;;;;5.18;1.80;;;18.10;58.30;;;;;;5086659;28;20020;-73
2022/03/19 01:50:29;;;;;;;5.40;1.80;;;18.10;58.20;;;;;;5086473;28;20038;-76
2022/03/19 01:52:56;;;;;;;2.60;1.27;;;18.10;58.20;;;;;;5086361;28;20062;-72
2022/03/19 01:55:24;;;;;;;2.65;1.17;;;18.10;58.10;;;;;;5084884;28;20020;-73
2022/03/19 01:57:51;;;;;;;6.13;1.95;;;18.10;58.10;;;;;;5085166;28;20024;-72
2022/03/19 02:00:22;;;;;;;5.10;1.65;;;18.10;58.00;;;;;;5087106;28;20039;-73
2022/03/19 02:02:50;;;;;;;4.97;1.88;;;18.10;57.90;;;;;;5087454;28;20016;-72
2022/03/19 02:05:18;;;;;;;4.15;1.42;;;18.10;57.90;;;;;;5084991;28;20032;-74
2022/03/19 02:07:46;;;;;;;3.72;1.60;;;18.10;57.80;;;;;;5086251;28;20273;-73
2022/03/19 02:10:13;;;;;;;4.38;1.63;;;18.00;57.80;;;;;;5086491;28;20047;-73
2022/03/19 02:12:41;;;;;;;6.15;1.63;;;18.10;57.80;;;;;;5085855;28;20043;-74
2022/03/19 02:15:09;;;;;;;5.43;1.77;;;18.10;57.70;;;;;;5085984;28;20035;-78
2022/03/19 02:17:35;;;;;;;4.70;1.40;;;18.10;57.70;;;;;;5084642;28;20028;-74
2022/03/19 02:20:03;;;;;;;7.28;1.77;;;18.00;57.60;;;;;;5087387;28;20042;-73
2022/03/19 02:22:29;;;;;;;2.67;1.40;;;18.00;57.60;;;;;;5085544;28;20031;-72
2022/03/19 02:27:41;;;;;;;4.25;1.52;;;18.00;57.50;;;;;;5086330;28;20066;-72
2022/03/19 02:30:10;;;;;;;3.03;1.23;;;18.00;57.50;;;;;;5085420;28;20036;-74
2022/03/19 02:32:38;;;;;;;4.43;1.58;;;18.00;57.40;;;;;;5090638;28;20104;-76
2022/03/19 02:35:05;;;;;;;3.22;1.38;;;18.00;57.30;;;;;;5086742;28;20032;-72
2022/03/19 02:37:45;;;;;;;4.60;1.45;;;18.00;57.30;;;;;;5085717;28;20027;-72
2022/03/19 02:40:14;;;;;;;4.18;1.70;;;18.10;57.40;;;;;;5086924;28;20422;-72
2022/03/19 02:42:40;;;;;;;5.88;1.73;;;18.00;57.20;;;;;;5085458;28;20031;-73
2022/03/19 02:45:07;;;;;;;4.22;1.40;;;18.00;57.20;;;;;;5084120;28;20032;-73
2022/03/19 02:47:34;;;;;;;5.43;1.77;;;18.00;57.10;;;;;;5088491;28;20032;-75
2022/03/19 02:50:00;;;;;;;3.35;1.40;;;18.00;57.10;;;;;;5085728;28;20055;-76
2022/03/19 02:52:26;;;;;;;5.63;1.40;;;18.00;57.10;;;;;;5085492;28;20751;-72
2022/03/19 02:54:52;;;;;;;3.15;1.50;;;18.00;57.10;;;;;;5085107;28;20020;-75
2022/03/19 02:57:17;;;;;;;3.75;1.17;;;18.00;57.00;;;;;;5083895;28;20035;-75
2022/03/19 02:59:43;;;;;;;3.28;1.23;;;18.00;57.00;;;;;;5086469;28;20028;-73
2022/03/19 03:02:09;;;;;;;4.93;1.65;;;18.00;57.00;;;;;;5089016;28;20039;-74
2022/03/19 03:04:34;;;;;;;2.97;1.30;;;18.00;57.00;;;;;;5086314;28;20076;-75
2022/03/19 03:07:03;;;;;;;2.58;1.15;;;18.00;57.00;;;;;;5084701;28;20032;-75
2022/03/19 03:09:32;;;;;;;4.95;1.60;;;18.00;56.90;;;;;;5085523;28;20087;-73
2022/03/19 03:11:58;;;;;;;2.50;1.20;;;18.00;56.90;;;;;;5083928;28;20523;-79
2022/03/19 03:14:24;;;;;;;3.15;1.23;;;18.10;56.90;;;;;;5084211;28;20380;-73
2022/03/19 03:16:52;;;;;;;2.83;1.52;;;18.00;56.80;;;;;;5085122;28;20036;-74
2022/03/19 03:19:19;;;;;;;3.53;1.27;;;18.00;56.80;;;;;;5087013;28;20404;-74
2022/03/19 03:21:46;;;;;;;1.73;0.90;;;18.10;56.80;;;;;;5084383;28;20403;-72
2022/03/19 03:24:13;;;;;;;2.42;0.95;;;18.10;56.70;;;;;;5085423;28;20032;-72
2022/03/19 03:26:40;;;;;;;3.67;1.15;;;18.00;56.60;;;;;;5083614;28;20112;-72
2022/03/19 03:29:06;;;;;;;3.35;1.25;;;18.10;56.60;;;;;;5084926;28;20839;-72
2022/03/19 03:31:33;;;;;;;3.03;1.38;;;18.00;56.60;;;;;;5084500;28;20125;-72
2022/03/19 03:33:59;;;;;;;2.83;1.02;;;18.10;56.50;;;;;;5085710;28;20020;-72
2022/03/19 03:36:25;;;;;;;3.60;1.20;;;18.00;56.50;;;;;;5087046;28;20028;-72
2022/03/19 03:38:51;;;;;;;3.53;1.70;;;18.10;56.40;;;;;;5085472;28;20035;-72
2022/03/19 03:41:17;;;;;;;4.20;1.40;;;18.10;56.40;;;;;;5087325;28;20027;-72
2022/03/19 03:43:43;;;;;;;2.78;1.13;;;18.10;56.40;;;;;;5085701;28;20082;-72
2022/03/19 03:46:09;;;;;;;2.70;1.10;;;18.10;56.30;;;;;;5085202;28;20028;-71
2022/03/19 03:48:36;;;;;;;4.85;1.30;;;18.10;56.30;;;;;;5086389;28;20038;-72
2022/03/19 03:51:03;;;;;;;3.28;1.20;;;18.10;56.20;;;;;;5085114;28;20073;-73
2022/03/19 03:53:29;;;;;;;3.60;1.25;;;18.10;56.20;;;;;;5084382;28;20032;-74
2022/03/19 03:55:55;;;;;;;2.63;0.90;;;18.10;56.10;;;;;;5084542;28;20032;-75
2022/03/19 03:58:22;;;;;;;2.10;0.82;;;18.10;56.10;;;;;;5084301;28;20024;-72
2022/03/19 04:00:51;;;;;;;2.65;1.08;;;18.10;56.00;;;;;;5085708;28;20018;-73
2022/03/19 04:03:16;;;;;;;4.25;1.85;;;18.10;56.00;;;;;;5086148;28;20093;-73
2022/03/19 04:05:42;;;;;;;2.75;1.20;;;18.10;56.00;;;;;;5087106;28;20488;-72
2022/03/19 04:08:08;;;;;;;3.83;1.20;;;18.10;56.00;;;;;;5085142;28;20035;-72
2022/03/19 04:10:34;;;;;;;3.67;1.20;;;18.10;55.90;;;;;;5083210;28;20039;-72
2022/03/19 04:13:00;;;;;;;5.13;1.10;;;18.10;55.90;;;;;;5084755;28;20058;-72
2022/03/19 04:15:26;;;;;;;2.95;1.20;;;18.10;55.90;;;;;;5082637;28;20495;-73
2022/03/19 04:17:51;;;;;;;2.58;0.98;;;18.10;55.80;;;;;;5083806;28;20066;-72
2022/03/19 04:20:18;;;;;;;4.32;1.17;;;18.10;55.80;;;;;;5084411;28;20111;-72
2022/03/19 04:22:45;;;;;;;2.67;0.90;;;18.10;55.70;;;;;;5084698;28;20099;-72
2022/03/19 04:25:22;;;;;;;3.53;1.23;;;18.10;55.60;;;;;;5084334;28;20593;-73
2022/03/19 04:27:50;;;;;;;2.63;1.20;;;18.10;55.60;;;;;;5084436;28;20028;-75
2022/03/19 04:30:18;;;;;;;3.05;0.82;;;18.10;55.60;;;;;;5083083;28;20028;-72
2022/03/19 04:32:51;;;;;;;1.42;0.75;;;18.10;55.50;;;;;;5085087;28;20074;-73
2022/03/19 04:38:07;;;;;;;;;;;18.10;55.40;;;;;;5087302;28;20043;-74
2022/03/19 04:40:34;;;;;;;2.47;1.15;;;18.10;55.40;;;;;;5085497;28;19912;-73
2022/03/19 04:43:00;;;;;;;2.03;0.93;;;18.10;55.40;;;;;;5087839;28;20032;-73
2022/03/19 04:45:26;;;;;;;3.33;1.20;;;18.10;55.30;;;;;;5085875;28;20250;-73
2022/03/19 04:47:53;;;;;;;3.13;1.00;;;18.10;55.30;;;;;;5088647;28;20024;-72
2022/03/19 04:50:19;;;;;;;2.80;1.27;;;18.10;55.30;;;;;;5086563;28;20077;-72
2022/03/19 04:52:45;;;;;;;3.47;1.20;;;18.10;55.20;;;;;;5087732;28;20047;-72
2022/03/19 04:55:11;;;;;;;2.58;0.98;;;18.10;55.20;;;;;;5087530;28;20024;-72
2022/03/19 04:57:38;;;;;;;2.67;0.90;;;18.20;55.20;;;;;;5087354;28;20047;-72
2022/03/19 05:00:06;;;;;;;2.90;1.10;;;18.10;55.10;;;;;;5088084;28;20012;-72
2022/03/19 05:02:32;;;;;;;4.35;1.35;;;18.10;55.10;;;;;;5088267;28;20031;-72
2022/03/19 05:04:58;;;;;;;3.15;0.90;;;18.10;55.10;;;;;;5091407;28;20475;-73
2022/03/19 05:07:24;;;;;;;2.58;1.30;;;18.10;55.10;;;;;;5087995;28;20034;-72
2022/03/19 05:12:38;;;;;;;1.73;0.70;;;18.10;55.00;;;;;;5087211;28;20055;-72
2022/03/19 05:15:05;;;;;;;2.42;0.93;;;18.20;55.00;;;;;;5087103;28;20020;-72
2022/03/19 05:17:31;;;;;;;3.30;1.60;;;18.10;54.90;;;;;;5087397;28;20134;-72
2022/03/19 05:19:57;;;;;;;2.40;0.90;;;18.10;55.00;;;;;;5089914;28;20028;-73
2022/03/19 05:22:22;;;;;;;2.65;1.13;;;18.10;54.90;;;;;;5087059;28;20554;-73
2022/03/19 05:24:48;;;;;;;1.92;0.88;;;18.10;54.80;;;;;;5086709;28;20021;-72
2022/03/19 05:27:14;;;;;;;1.58;0.90;;;18.10;54.80;;;;;;5085845;28;20039;-71
2022/03/19 05:29:40;;;;;;;3.28;1.00;;;18.10;54.80;;;;;;5086964;28;20036;-72
2022/03/19 05:32:07;;;;;;;2.95;1.13;;;18.10;54.70;;;;;;5087935;28;20055;-72
2022/03/19 05:34:34;;;;;;;3.50;1.02;;;18.10;54.70;;;;;;5089072;28;20020;-75
2022/03/19 05:37:03;;;;;;;3.22;1.17;;;18.10;54.60;;;;;;5088431;28;20028;-72
2022/03/19 05:39:33;;;;;;;2.83;1.10;;;18.10;54.60;;;;;;5112751;27;20023;-72
2022/03/19 05:42:02;;;;;;;2.08;0.98;;;18.10;54.60;;;;;;5088732;28;20032;-73
2022/03/19 05:44:28;;;;;;;1.48;0.82;;;18.10;54.60;;;;;;5087302;28;20103;-76
2022/03/19 05:46:54;;;;;;;2.00;1.00;;;18.10;54.50;;;;;;5088030;28;20115;-73
2022/03/19 05:49:20;;;;;;;1.88;0.80;;;18.10;54.50;;;;;;5087410;28;20024;-73
2022/03/19 05:51:45;;;;;;;2.65;0.90;;;18.10;54.60;;;;;;5086792;28;20410;-72
2022/03/19 05:54:11;;;;;;;2.75;1.00;;;18.10;54.50;;;;;;5085907;28;20547;-72
2022/03/19 05:56:37;;;;;;;2.38;0.90;;;18.10;54.50;;;;;;5086109;28;20445;-72
2022/03/19 05:59:04;;;;;;;4.00;1.00;;;18.10;54.50;;;;;;5089212;28;20016;-72
2022/03/19 06:01:30;;;;;;;3.00;0.98;;;18.10;54.40;;;;;;5088484;28;20103;-73
2022/03/19 06:03:57;;;;;;;3.25;1.13;;;18.10;54.40;;;;;;5089508;28;20021;-72
2022/03/19 06:06:24;;;;;;;1.70;1.02;;;18.10;54.40;;;;;;5088047;28;20048;-73
2022/03/19 06:08:49;;;;;;;2.22;0.88;;;18.10;54.40;;;;;;5087015;28;20055;-72
2022/03/19 06:11:15;;;;;;;3.45;1.20;;;18.10;54.40;;;;;;5087201;28;20456;-72
2022/03/19 06:13:41;;;;;;;2.80;1.08;;;18.10;54.40;;;;;;5087008;28;20035;-73
2022/03/19 06:16:07;;;;;;;2.80;0.93;;;18.10;54.40;;;;;;5084925;28;20075;-72
2022/03/19 06:18:33;;;;;;;2.13;0.82;;;18.10;54.40;;;;;;5087107;28;20602;-72
2022/03/19 06:20:59;;;;;;;3.63;1.00;;;18.10;54.40;;;;;;5088452;28;20110;-72
2022/03/19 06:23:25;;;;;;;2.65;0.90;;;18.10;54.30;;;;;;5086046;28;20575;-75
2022/03/19 06:25:51;;;;;;;1.70;0.85;;;18.10;54.30;;;;;;5086674;28;20102;-72
2022/03/19 06:28:17;;;;;;;1.35;0.70;;;18.10;54.30;;;;;;5085718;28;20566;-73
2022/03/19 06:30:43;;;;;;;3.05;1.20;;;18.00;54.20;;;;;;5085830;28;20515;-74
2022/03/19 06:33:09;;;;;;;2.20;0.90;;;18.00;54.20;;;;;;5086954;28;20062;-75
2022/03/19 06:38:24;;;;;;;1.92;1.02;;;18.00;54.20;;;;;;5086878;28;20034;-72
2022/03/19 06:40:50;;;;;;;1.80;0.90;;;18.10;54.10;;;;;;5088873;28;20028;-72
2022/03/19 06:43:16;;;;;;;2.47;1.15;;;18.00;54.00;;;;;;5086475;28;20032;-72
2022/03/19 06:45:42;;;;;;;2.20;0.93;;;18.10;54.10;;;;;;5086577;28;20031;-72
2022/03/19 06:48:07;;;;;;;2.28;1.00;;;18.00;54.00;;;;;;5085415;28;20028;-72
2022/03/19 06:50:33;;;;;;;2.45;1.10;;;18.10;54.00;;;;;;5086455;28;20074;-73
2022/03/19 06:52:59;;;;;;;3.22;0.93;;;18.10;54.00;;;;;;5085347;28;20430;-74
2022/03/19 06:55:25;;;;;;;2.42;0.88;;;18.10;54.00;;;;;;5084555;28;20030;-72
2022/03/19 06:57:50;;;;;;;5.05;1.20;;;18.00;53.90;;;;;;5085535;28;20028;-74
2022/03/19 07:00:16;;;;;;;2.45;0.90;;;18.10;53.90;;;;;;5086457;28;20027;-72
2022/03/19 07:02:49;;;;;;;1.63;1.05;;;18.10;53.90;;;;;;5084455;28;20059;-71
2022/03/19 07:05:22;;;;;;;1.77;0.90;;;18.10;53.90;;;;;;5088502;28;20024;-74
2022/03/19 07:07:48;;;;;;;1.65;0.82;;;18.10;53.90;;;;;;5084939;28;20137;-73
2022/03/19 07:10:15;;;;;;;2.13;0.98;;;18.10;53.90;;;;;;5085923;28;20512;-72
2022/03/19 07:12:49;;;;;;;3.58;1.05;;;18.10;53.80;;;;;;5085150;28;20058;-72
2022/03/19 07:15:16;;;;;;;3.10;1.13;;;18.10;53.80;;;;;;5087410;28;20020;-73
2022/03/19 07:17:43;;;;;;;2.60;0.88;;;18.10;53.80;;;;;;5087009;28;20055;-72
2022/03/19 07:20:10;;;;;;;2.05;0.98;;;18.10;53.80;;;;;;5086937;28;20054;-74
2022/03/19 07:23:08;;;;;;;2.67;0.80;;;18.10;53.80;;;;;;5084777;28;20059;-72
2022/03/19 07:25:38;;;;;;;1.67;0.88;;;18.10;53.80;;;;;;5065003;28;20460;-72
2022/03/19 07:28:10;;;;;;;3.50;1.10;;;18.10;54.30;;;;;;5088616;28;20031;-72
2022/03/19 07:30:36;;;;;;;3.15;1.25;;;18.10;53.70;;;;;;5090742;28;20481;-73
2022/03/19 07:33:02;;;;;;;2.40;1.02;;;18.10;53.70;;;;;;5090252;28;20032;-72
2022/03/19 07:35:28;;;;;;;2.95;0.90;;;18.10;53.70;;;;;;5090978;28;20016;-72
2022/03/19 07:37:54;;;;;;;1.73;0.77;;;18.10;53.70;;;;;;5089907;28;20032;-72
2022/03/19 07:43:07;;;;;;;2.10;0.80;;;18.10;53.70;;;;;;5091412;28;20636;-72
2022/03/19 07:45:34;;;;;;;2.20;1.17;;;18.10;53.80;;;;;;5089635;28;20583;-72
2022/03/19 07:48:00;;;;;;;2.67;1.13;;;18.10;53.70;;;;;;5090741;28;20028;-72
2022/03/19 07:50:26;;;;;;;2.95;1.00;;;18.10;53.70;;;;;;5090833;28;20498;-72
2022/03/19 07:52:52;;;;;;;3.15;1.15;;;18.10;53.70;;;;;;5091187;28;20032;-72
2022/03/19 07:55:18;;;;;;;4.50;1.52;;;18.10;53.60;;;;;;5090914;28;20391;-73
2022/03/19 07:57:43;;;;;;;3.47;0.85;;;18.10;53.60;;;;;;5091383;28;20028;-73
2022/03/19 08:00:12;;;;;;;5.18;0.93;;;18.10;53.60;;;;;;5092249;28;20028;-74
2022/03/19 08:02:38;;;;;;;2.00;1.17;;;18.10;53.60;;;;;;5111265;28;20096;-72
2022/03/19 08:05:04;;;;;;;2.33;1.00;;;18.10;53.60;;;;;;5109990;28;20081;-74
2022/03/19 08:07:30;;;;;;;1.63;0.82;;;18.10;53.60;;;;;;5109788;28;20020;-73
2022/03/19 08:09:56;;;;;;;2.22;0.80;;;18.10;53.60;;;;;;5111244;28;20024;-73
2022/03/19 08:12:21;;;;;;;4.13;1.02;;;18.10;53.50;;;;;;5110943;28;20119;-73
2022/03/19 08:14:49;;;;;;;2.95;1.15;;;18.10;53.60;;;;;;5111205;28;20398;-72
2022/03/19 08:17:15;;;;;;;4.07;1.27;;;18.10;53.60;;;;;;5114942;28;20023;-73
2022/03/19 08:19:42;;;;;;;2.58;1.17;;;18.10;53.60;;;;;;5095510;28;20107;-72
2022/03/19 08:22:08;;;;;;;4.57;2.13;;;18.10;53.50;;;;;;5094482;28;20032;-72
2022/03/19 08:24:35;;;;;;;6.15;2.72;;;18.10;53.00;;;;;;5094414;28;20019;-73
2022/03/19 08:27:01;;;;;;;5.82;3.33;;;18.10;52.60;;;;;;5092840;28;20047;-73
2022/03/19 08:29:27;;;;;;;6.20;3.47;;;18.00;52.00;;;;;;5114651;28;20016;-73
2022/03/19 08:31:53;;;;;;;8.07;3.80;;;18.00;51.60;;;;;;5108890;28;20450;-73
2022/03/19 08:34:19;;;;;;;9.32;4.15;;;18.10;51.50;;;;;;5094415;28;20026;-73
2022/03/19 08:36:44;;;;;;;8.35;3.25;;;18.10;51.60;;;;;;5093002;28;20513;-73
2022/03/19 08:41:54;;;;;;;10.02;2.92;;;18.20;51.90;;;;;;5094704;28;20093;-73
2022/03/19 08:44:20;;;;;;;6.07;3.05;;;18.30;51.90;;;;;;5094274;28;20032;-73
2022/03/19 08:46:47;;;;;;;7.30;2.72;;;18.30;52.00;;;;;;5094361;28;20456;-73
2022/03/19 08:49:12;;;;;;;7.22;3.33;;;18.30;52.00;;;;;;5093882;28;20089;-73
2022/03/19 08:51:40;;;;;;;8.18;3.17;;;18.40;52.20;;;;;;5093551;28;20472;-73
2022/03/19 08:54:17;;;;;;;8.30;2.70;;;18.40;52.30;;;;;;5092850;28;20403;-73
2022/03/19 08:56:45;;;;;;;7.65;1.98;;;18.40;52.20;;;;;;5094384;28;20024;-73
2022/03/19 08:59:11;;;;;;;7.10;2.45;;;18.50;52.50;;;;;;5094287;28;20024;-73
2022/03/19 09:01:38;;;;;;;7.03;2.70;;;18.50;52.40;;;;;;5093773;28;20028;-73
2022/03/19 09:04:04;;;;;;;9.63;2.72;;;18.50;52.70;;;;;;5093608;28;20518;-74
2022/03/19 09:06:30;;;;;;;9.52;3.05;;;18.60;52.60;;;;;;5093070;28;20043;-73
2022/03/19 09:08:56;;;;;;;10.48;2.95;;;18.60;52.60;;;;;;5092652;28;20028;-74
2022/03/19 09:11:23;;;;;;;7.18;2.50;;;18.70;52.60;;;;;;5091627;28;20486;-75
2022/03/19 09:13:50;;;;;;;8.48;2.58;;;18.70;52.50;;;;;;5091673;28;20165;-73
2022/03/19 09:16:18;;;;;;;8.40;3.03;;;18.60;53.20;;;;;;5093512;28;20050;-74
2022/03/19 09:18:43;;;;;;;7.95;2.45;;;18.70;53.00;;;;;;5093516;28;20031;-73
2022/03/19 09:21:09;;;;;;;11.00;2.75;;;18.70;52.80;;;;;;5093473;28;20020;-72
2022/03/19 09:23:35;;;;;;;5.35;2.38;;;18.70;52.90;;;;;;5092477;28;20036;-73
2022/03/19 09:26:01;;;;;;;6.03;2.70;;;18.70;53.00;;;;;;5093021;28;20036;-72
2022/03/19 09:28:26;;;;;;;6.03;2.22;;;18.70;53.10;;;;;;5092197;28;20490;-73
2022/03/19 09:30:52;;;;;;;5.38;2.40;;;18.70;53.20;;;;;;5093473;28;20046;-72
2022/03/19 09:33:18;;;;;;;7.63;2.85;;;18.80;53.30;;;;;;5093244;28;20032;-73
2022/03/19 09:35:48;;;;;;;7.30;2.53;;;18.80;53.40;;;;;;5092966;28;20031;-70
2022/03/19 09:38:15;;;;;;;4.32;2.10;;;18.80;53.70;;;;;;5092783;28;20553;-72
2022/03/19 09:40:41;;;;;;;11.57;2.47;;;18.80;53.60;;;;;;5093013;28;20575;-73
2022/03/19 09:43:07;;;;;;;5.50;1.70;;;18.80;53.60;;;;;;5091804;28;20038;-72
2022/03/19 09:45:34;;;;;;;8.07;2.35;;;18.90;54.20;;;;;;5092481;28;20028;-71
2022/03/19 09:48:00;;;;;;;9.23;3.00;;;18.90;53.40;;;;;;5091915;28;20111;-72
2022/03/19 09:50:26;;;;;;;8.82;2.25;;;18.80;53.30;;;;;;5092815;28;20492;-72
2022/03/19 09:52:54;;;;;;;8.95;3.00;;;18.80;53.20;;;;;;5092817;28;20541;-72
2022/03/19 09:55:21;;;;;;;8.65;2.55;;;18.90;53.20;;;;;;5092702;28;20128;-72
2022/03/19 09:57:47;;;;;;;5.25;2.55;;;18.90;53.00;;;;;;5092972;28;20025;-73
2022/03/19 10:00:13;;;;;;;6.30;1.98;;;18.90;53.00;;;;;;5093188;28;20043;-72
2022/03/19 10:02:55;;;;;;;6.78;2.33;;;19.00;53.00;;;;;;5092515;28;20058;-73
2022/03/19 10:10:50;;;;;;;4.95;2.35;;;18.90;53.10;;;;;;5092697;28;20400;-72
2022/03/19 10:13:16;;;;;;;5.72;2.00;;;18.90;53.00;;;;;;5092345;28;20032;-72
2022/03/19 10:15:42;;;;;;;5.32;2.38;;;19.00;53.10;;;;;;5092741;28;20020;-72
2022/03/19 10:18:09;;;;;;;5.55;2.40;;;18.90;53.00;;;;;;5092459;28;20107;-72
2022/03/19 10:20:36;;;;;;;8.27;2.83;;;19.00;53.00;;;;;;5092045;28;20287;-73
2022/03/19 10:23:02;;;;;;;4.15;1.90;;;19.00;53.00;;;;;;5092430;28;20482;-73
2022/03/19 10:25:29;;;;;;;5.78;2.03;;;19.00;52.90;;;;;;5091997;28;20496;-71
2022/03/19 10:28:02;;;;;;;6.65;2.20;;;19.00;52.80;;;;;;5092387;28;20020;-72
2022/03/19 10:30:38;;;;;;;5.68;2.40;;;19.00;52.60;;;;;;5092017;28;20032;-72
2022/03/19 10:33:06;;;;;;;6.57;2.13;;;19.00;52.60;;;;;;5092241;28;20028;-72
2022/03/19 10:35:39;;;;;;;5.15;2.10;;;19.10;52.60;;;;;;5091431;28;20485;-71
2022/03/19 10:38:23;;;;;;;6.72;3.15;;;19.00;52.50;;;;;;5090938;28;20059;-73
2022/03/19 10:40:52;;;;;;;6.22;2.95;;;19.00;51.30;;;;;;5091842;28;20024;-71
2022/03/19 10:43:22;;;;;;;9.50;2.65;;;19.00;51.70;;;;;;5112350;28;20023;-74
2022/03/19 10:45:52;;;;;;;7.47;2.55;;;19.00;51.80;;;;;;5103489;28;20032;-74
2022/03/19 10:48:28;;;;;;;7.93;2.58;;;19.10;51.80;;;;;;5090208;28;20020;-73
2022/03/19 10:50:55;;;;;;;9.80;2.67;;;19.10;51.80;;;;;;5091868;28;20361;-73
2022/03/19 10:53:22;;;;;;;7.13;2.60;;;19.20;51.90;;;;;;5091255;28;20086;-75
2022/03/19 10:55:48;;;;;;;12.85;2.63;;;19.20;52.00;;;;;;5091874;28;20024;-73
2022/03/19 10:58:14;;;;;;;7.13;2.65;;;19.20;51.60;;;;;;5091973;28;20026;-74
2022/03/19 11:00:41;;;;;;;6.13;2.80;;;19.20;51.70;;;;;;5091193;28;20059;-72
2022/03/19 11:03:12;;;;;;;11.00;3.15;;;19.20;51.70;;;;;;5091391;28;20024;-76
2022/03/19 11:05:40;;;;;;;4.63;2.80;;;19.20;52.00;;;;;;5091517;28;20310;-78
2022/03/19 11:08:09;;;;;;;9.30;3.00;;;19.30;51.80;;;;;;5091895;28;20024;-77
2022/03/19 11:10:36;;;;;;;9.57;2.83;;;19.30;51.90;;;;;;5091344;28;20467;-76
2022/03/19 11:13:03;;;;;;;8.50;3.35;;;19.30;51.80;;;;;;5091737;28;20507;-76
2022/03/19 11:15:35;;;;;;;14.02;4.25;;;19.30;51.60;;;;;;5091383;28;20035;-76
2022/03/19 11:18:07;;;;;;;14.45;4.57;;;19.30;51.80;;;;;;5090514;28;20036;-80
2022/03/19 11:20:34;;;;;;;10.07;3.85;;;19.40;52.00;;;;;;5091342;28;20437;-80
2022/03/19 11:23:04;;;;;;;14.15;5.07;;;19.40;51.40;;;;;;5091040;28;20069;-77
2022/03/19 11:25:39;;;;;;;17.20;3.50;;;19.40;49.90;;;;;;5090734;28;20027;-80
2022/03/19 11:28:13;;;;;;;15.93;4.45;;;19.50;50.50;;;;;;5090163;28;20059;-73
2022/03/19 11:30:41;;;;;;;14.85;3.75;;;19.60;51.40;;;;;;5090623;28;20032;-76
2022/03/19 11:33:17;;;;;;;13.00;3.58;;;19.60;51.60;;;;;;5090081;28;20488;-73
2022/03/19 11:36:01;;;;;;;9.27;3.13;;;19.60;51.80;;;;;;5091564;28;20020;-76
2022/03/19 11:38:31;;;;;;;12.48;3.22;;;19.70;51.80;;;;;;5089478;28;20028;-77
2022/03/19 11:40:58;;;;;;;7.32;2.22;;;19.70;51.40;;;;;;5091381;28;20372;-77
2022/03/19 11:43:30;;;;;;;7.05;2.65;;;19.90;51.30;;;;;;5090942;28;20024;-75
2022/03/19 11:46:02;;;;;;;10.13;2.88;;;20.00;50.90;;;;;;5090303;28;20376;-77
2022/03/19 11:48:46;;;;;;;12.10;3.25;;;20.10;51.10;;;;;;5089977;28;20379;-76
2022/03/19 11:51:18;;;;;;;10.48;1.98;;;20.30;51.10;;;;;;5094855;28;20024;-75
2022/03/19 11:53:55;;;;;;;11.38;2.38;;;20.30;51.10;;;;;;5094988;28;20058;-74
2022/03/19 11:56:40;;;;;;;4.35;2.38;;;20.40;50.70;;;;;;5094711;28;20024;-73
2022/03/19 11:59:32;;;;;;;11.63;2.65;;;20.40;49.50;;;;;;5093904;28;20110;-73
2022/03/19 12:02:09;;;;;;;9.23;2.35;;;20.50;48.60;;;;;;5073233;28;20539;-74
2022/03/19 12:04:57;;;;;;;7.90;2.28;;;20.50;47.40;;;;;;5073335;28;20623;-73
2022/03/19 12:07:47;;;;;;;5.93;2.45;;;20.50;46.40;;;;;;5074644;28;20021;-73
2022/03/19 12:10:15;;;;;;;10.93;2.05;;;20.50;45.60;;;;;;5073716;28;20025;-74
2022/03/19 12:12:42;;;;;;;6.70;1.90;;;20.60;46.10;;;;;;5093478;28;20044;-76
2022/03/19 12:15:30;;;;;;;4.28;1.60;;;20.70;46.20;;;;;;5115360;28;20020;-75
2022/03/19 12:18:24;;;;;;;7.50;1.70;;;20.90;46.80;;;;;;5097667;28;20039;-75
2022/03/19 12:20:59;;;;;;;7.47;2.83;;;21.00;46.80;;;;;;5094795;28;20048;-76
2022/03/19 12:23:29;;;;;;;17.08;4.03;;;21.20;46.70;;;;;;5094744;28;20111;-75
2022/03/19 12:26:01;;;;;;;15.73;5.20;;;21.20;46.40;;;;;;5094659;28;20510;-74
2022/03/19 12:28:28;;;;;;;11.45;3.35;;;21.30;46.20;;;;;;5094075;28;20020;-75
2022/03/19 12:30:54;;;;;;;11.80;3.22;;;21.50;45.30;;;;;;5097745;28;20015;-74
2022/03/19 12:33:29;;;;;;;11.60;2.60;;;21.60;45.30;;;;;;5114625;28;20038;-74
2022/03/19 12:35:58;;;;;;;11.68;2.65;;;21.70;45.90;;;;;;5101062;28;20476;-73
2022/03/19 12:38:32;;;;;;;8.27;2.20;;;21.90;44.50;;;;;;5092706;28;20050;-75
2022/03/19 12:43:43;;;;;;;6.97;1.60;;;23.90;41.60;;;;;;5094752;28;20066;-72
2022/03/19 12:46:09;;;;;;;5.68;1.85;;;26.00;39.60;;;;;;5094290;28;20020;-72
2022/03/19 12:48:39;;;;;;;6.43;2.00;;;27.30;37.30;;;;;;5092454;28;20163;-72
2022/03/19 12:51:05;;;;;;;9.90;2.05;;;28.80;34.20;;;;;;5094211;28;20426;-75
2022/03/19 12:53:33;;;;;;;3.22;1.25;;;29.80;33.40;;;;;;5096432;28;20115;-75
2022/03/19 12:56:20;;;;;;;12.40;1.70;;;30.60;32.10;;;;;;5106081;28;20158;-74
2022/03/19 12:58:48;;;;;;;7.00;1.67;;;30.90;31.30;;;;;;5094096;28;20035;-73
2022/03/19 13:01:17;;;;;;;8.02;2.08;;;29.90;31.90;;;;;;5093592;28;20020;-74
2022/03/19 13:03:44;;;;;;;11.07;1.88;;;27.50;34.40;;;;;;5093269;28;20070;-73
2022/03/19 13:06:10;;;;;;;5.63;1.50;;;26.10;36.50;;;;;;5093488;28;20103;-75
2022/03/19 13:08:50;;;;;;;5.53;1.73;;;25.20;36.30;;;;;;5093651;28;20322;-73
2022/03/19 13:11:16;;;;;;;7.72;1.80;;;24.60;37.30;;;;;;5094421;28;20073;-73
2022/03/19 13:13:44;;;;;;;7.65;2.40;;;24.20;37.90;;;;;;5093495;28;20028;-73